sensor_id;sensor_type;location;lat;lon;timestamp;P1;durP1;ratioP1;P2;durP2;ratioP2
31438;SDS011;18062;48.872;9.220;2023-05-10T00:02:11;1.13;;;0.70;;
31438;SDS011;18062;48.872;9.220;2023-05-10T00:04:37;0.50;;;0.50;;
31438;SDS011;18062;48.872;9.220;2023-05-10T00:07:03;0.60;;;0.60;;
31438;SDS011;18062;48.872;9.220;2023-05-10T00:09:29;0.83;;;0.53;;
31438;SDS011;18062;48.872;9.220;2023-05-10T00:11:55;0.40;;;0.40;;
31438;SDS011;18062;48.872;9.220;2023-05-10T00:14:23;0.40;;;0.40;;
31438;SDS011;18062;48.872;9.220;2023-05-10T00:16:49;0.30;;;0.30;;
31438;SDS011;18062;48.872;9.220;2023-05-10T00:19:15;0.30;;;0.30;;
31438;SDS011;18062;48.872;9.220;2023-05-10T00:21:41;0.30;;;0.30;;
31438;SDS011;18062;48.872;9.220;2023-05-10T00:24:07;0.40;;;0.40;;
31438;SDS011;18062;48.872;9.220;2023-05-10T00:26:33;0.30;;;0.30;;
31438;SDS011;18062;48.872;9.220;2023-05-10T00:28:59;0.20;;;0.20;;
31438;SDS011;18062;48.872;9.220;2023-05-10T00:31:25;0.30;;;0.30;;
31438;SDS011;18062;48.872;9.220;2023-05-10T00:33:51;0.30;;;0.30;;
31438;SDS011;18062;48.872;9.220;2023-05-10T00:36:17;0.30;;;0.30;;
31438;SDS011;18062;48.872;9.220;2023-05-10T00:38:43;0.33;;;0.33;;
31438;SDS011;18062;48.872;9.220;2023-05-10T00:41:09;0.40;;;0.40;;
31438;SDS011;18062;48.872;9.220;2023-05-10T00:43:35;0.30;;;0.30;;
31438;SDS011;18062;48.872;9.220;2023-05-10T00:46:01;0.63;;;0.37;;
31438;SDS011;18062;48.872;9.220;2023-05-10T00:48:28;0.20;;;0.20;;
31438;SDS011;18062;48.872;9.220;2023-05-10T00:50:54;0.30;;;0.30;;
31438;SDS011;18062;48.872;9.220;2023-05-10T00:53:21;0.30;;;0.30;;
31438;SDS011;18062;48.872;9.220;2023-05-10T00:55:47;0.30;;;0.30;;
31438;SDS011;18062;48.872;9.220;2023-05-10T00:58:13;0.30;;;0.30;;
31438;SDS011;18062;48.872;9.220;2023-05-10T01:00:39;0.40;;;0.40;;
31438;SDS011;18062;48.872;9.220;2023-05-10T01:03:07;0.30;;;0.30;;
31438;SDS011;18062;48.872;9.220;2023-05-10T01:05:33;0.33;;;0.33;;
31438;SDS011;18062;48.872;9.220;2023-05-10T01:07:59;0.20;;;0.20;;
31438;SDS011;18062;48.872;9.220;2023-05-10T01:10:25;0.37;;;0.37;;
31438;SDS011;18062;48.872;9.220;2023-05-10T01:12:51;0.30;;;0.30;;
31438;SDS011;18062;48.872;9.220;2023-05-10T01:15:17;0.20;;;0.20;;
31438;SDS011;18062;48.872;9.220;2023-05-10T01:17:44;0.40;;;0.40;;
31438;SDS011;18062;48.872;9.220;2023-05-10T01:20:10;0.30;;;0.30;;
31438;SDS011;18062;48.872;9.220;2023-05-10T01:23:04;0.30;;;0.30;;
31438;SDS011;18062;48.872;9.220;2023-05-10T01:25:56;0.20;;;0.20;;
31438;SDS011;18062;48.872;9.220;2023-05-10T01:28:39;0.30;;;0.30;;
31438;SDS011;18062;48.872;9.220;2023-05-10T01:33:56;0.40;;;0.40;;
31438;SDS011;18062;48.872;9.220;2023-05-10T01:36:41;0.30;;;0.30;;
31438;SDS011;18062;48.872;9.220;2023-05-10T01:39:11;0.40;;;0.40;;
31438;SDS011;18062;48.872;9.220;2023-05-10T01:44:34;0.50;;;0.50;;
31438;SDS011;18062;48.872;9.220;2023-05-10T01:47:07;0.40;;;0.40;;
31438;SDS011;18062;48.872;9.220;2023-05-10T01:49:37;0.40;;;0.40;;
31438;SDS011;18062;48.872;9.220;2023-05-10T01:52:06;0.50;;;0.50;;
31438;SDS011;18062;48.872;9.220;2023-05-10T01:54:34;0.40;;;0.40;;
31438;SDS011;18062;48.872;9.220;2023-05-10T01:57:05;0.50;;;0.50;;
31438;SDS011;18062;48.872;9.220;2023-05-10T01:59:34;0.50;;;0.50;;
31438;SDS011;18062;48.872;9.220;2023-05-10T02:02:06;0.40;;;0.40;;
31438;SDS011;18062;48.872;9.220;2023-05-10T02:04:37;0.40;;;0.40;;
31438;SDS011;18062;48.872;9.220;2023-05-10T02:07:04;0.50;;;0.50;;
31438;SDS011;18062;48.872;9.220;2023-05-10T02:09:30;0.50;;;0.50;;
31438;SDS011;18062;48.872;9.220;2023-05-10T02:11:58;0.43;;;0.43;;
31438;SDS011;18062;48.872;9.220;2023-05-10T02:14:25;0.40;;;0.40;;
31438;SDS011;18062;48.872;9.220;2023-05-10T02:16:52;0.60;;;0.60;;
31438;SDS011;18062;48.872;9.220;2023-05-10T02:19:19;0.53;;;0.53;;
31438;SDS011;18062;48.872;9.220;2023-05-10T02:21:45;0.30;;;0.30;;
31438;SDS011;18062;48.872;9.220;2023-05-10T02:24:12;0.40;;;0.40;;
31438;SDS011;18062;48.872;9.220;2023-05-10T02:26:39;0.40;;;0.40;;
31438;SDS011;18062;48.872;9.220;2023-05-10T02:29:05;0.43;;;0.43;;
31438;SDS011;18062;48.872;9.220;2023-05-10T02:31:31;0.40;;;0.40;;
31438;SDS011;18062;48.872;9.220;2023-05-10T02:33:58;0.40;;;0.40;;
31438;SDS011;18062;48.872;9.220;2023-05-10T02:36:24;0.50;;;0.50;;
31438;SDS011;18062;48.872;9.220;2023-05-10T02:38:52;0.50;;;0.50;;
31438;SDS011;18062;48.872;9.220;2023-05-10T02:41:20;0.50;;;0.50;;
31438;SDS011;18062;48.872;9.220;2023-05-10T02:43:47;0.67;;;0.60;;
31438;SDS011;18062;48.872;9.220;2023-05-10T02:46:18;0.40;;;0.40;;
31438;SDS011;18062;48.872;9.220;2023-05-10T02:48:44;0.50;;;0.50;;
31438;SDS011;18062;48.872;9.220;2023-05-10T02:51:10;0.40;;;0.40;;
31438;SDS011;18062;48.872;9.220;2023-05-10T02:53:38;0.60;;;0.60;;
31438;SDS011;18062;48.872;9.220;2023-05-10T02:56:05;0.50;;;0.50;;
31438;SDS011;18062;48.872;9.220;2023-05-10T02:58:36;0.50;;;0.50;;
31438;SDS011;18062;48.872;9.220;2023-05-10T03:01:02;0.50;;;0.50;;
31438;SDS011;18062;48.872;9.220;2023-05-10T03:03:28;0.40;;;0.40;;
31438;SDS011;18062;48.872;9.220;2023-05-10T03:05:54;0.70;;;0.70;;
31438;SDS011;18062;48.872;9.220;2023-05-10T03:08:21;0.47;;;0.47;;
31438;SDS011;18062;48.872;9.220;2023-05-10T03:10:51;0.60;;;0.60;;
31438;SDS011;18062;48.872;9.220;2023-05-10T03:13:31;0.40;;;0.40;;
31438;SDS011;18062;48.872;9.220;2023-05-10T03:16:35;0.70;;;0.70;;
31438;SDS011;18062;48.872;9.220;2023-05-10T03:19:11;0.50;;;0.50;;
31438;SDS011;18062;48.872;9.220;2023-05-10T03:21:38;0.50;;;0.50;;
31438;SDS011;18062;48.872;9.220;2023-05-10T03:24:08;0.40;;;0.40;;
31438;SDS011;18062;48.872;9.220;2023-05-10T03:26:36;0.70;;;0.70;;
31438;SDS011;18062;48.872;9.220;2023-05-10T03:29:03;0.57;;;0.57;;
31438;SDS011;18062;48.872;9.220;2023-05-10T03:31:30;0.73;;;0.73;;
31438;SDS011;18062;48.872;9.220;2023-05-10T03:33:56;0.70;;;0.70;;
31438;SDS011;18062;48.872;9.220;2023-05-10T03:36:22;0.60;;;0.60;;
31438;SDS011;18062;48.872;9.220;2023-05-10T03:38:48;0.60;;;0.60;;
31438;SDS011;18062;48.872;9.220;2023-05-10T03:41:14;0.70;;;0.70;;
31438;SDS011;18062;48.872;9.220;2023-05-10T03:43:40;1.00;;;0.70;;
31438;SDS011;18062;48.872;9.220;2023-05-10T03:46:06;0.50;;;0.50;;
31438;SDS011;18062;48.872;9.220;2023-05-10T03:48:32;0.77;;;0.77;;
31438;SDS011;18062;48.872;9.220;2023-05-10T03:50:59;0.60;;;0.60;;
31438;SDS011;18062;48.872;9.220;2023-05-10T03:53:25;0.60;;;0.60;;
31438;SDS011;18062;48.872;9.220;2023-05-10T03:55:51;0.77;;;0.77;;
31438;SDS011;18062;48.872;9.220;2023-05-10T03:58:17;0.70;;;0.70;;
31438;SDS011;18062;48.872;9.220;2023-05-10T04:00:43;0.67;;;0.67;;
31438;SDS011;18062;48.872;9.220;2023-05-10T04:03:10;0.60;;;0.60;;
31438;SDS011;18062;48.872;9.220;2023-05-10T04:08:08;0.70;;;0.70;;
31438;SDS011;18062;48.872;9.220;2023-05-10T04:10:34;0.50;;;0.50;;
31438;SDS011;18062;48.872;9.220;2023-05-10T04:13:00;0.80;;;0.80;;
31438;SDS011;18062;48.872;9.220;2023-05-10T04:15:26;0.57;;;0.57;;
31438;SDS011;18062;48.872;9.220;2023-05-10T04:17:52;0.50;;;0.50;;
31438;SDS011;18062;48.872;9.220;2023-05-10T04:20:18;0.60;;;0.60;;
31438;SDS011;18062;48.872;9.220;2023-05-10T04:22:44;0.70;;;0.70;;
31438;SDS011;18062;48.872;9.220;2023-05-10T04:25:10;0.60;;;0.60;;
31438;SDS011;18062;48.872;9.220;2023-05-10T04:27:36;0.60;;;0.60;;
31438;SDS011;18062;48.872;9.220;2023-05-10T04:30:02;0.60;;;0.60;;
31438;SDS011;18062;48.872;9.220;2023-05-10T04:32:28;0.60;;;0.60;;
31438;SDS011;18062;48.872;9.220;2023-05-10T04:34:55;0.70;;;0.60;;
31438;SDS011;18062;48.872;9.220;2023-05-10T04:37:21;0.73;;;0.73;;
31438;SDS011;18062;48.872;9.220;2023-05-10T04:39:47;0.57;;;0.57;;
31438;SDS011;18062;48.872;9.220;2023-05-10T04:42:13;0.80;;;0.80;;
31438;SDS011;18062;48.872;9.220;2023-05-10T04:44:40;1.00;;;0.90;;
31438;SDS011;18062;48.872;9.220;2023-05-10T04:47:06;0.77;;;0.77;;
31438;SDS011;18062;48.872;9.220;2023-05-10T04:49:32;0.70;;;0.70;;
31438;SDS011;18062;48.872;9.220;2023-05-10T04:51:58;0.70;;;0.70;;
31438;SDS011;18062;48.872;9.220;2023-05-10T04:54:24;0.57;;;0.57;;
31438;SDS011;18062;48.872;9.220;2023-05-10T04:56:50;0.80;;;0.80;;
31438;SDS011;18062;48.872;9.220;2023-05-10T04:59:16;0.60;;;0.60;;
31438;SDS011;18062;48.872;9.220;2023-05-10T05:01:42;0.73;;;0.73;;
31438;SDS011;18062;48.872;9.220;2023-05-10T05:04:08;0.67;;;0.67;;
31438;SDS011;18062;48.872;9.220;2023-05-10T05:06:34;0.67;;;0.67;;
31438;SDS011;18062;48.872;9.220;2023-05-10T05:09:00;0.70;;;0.70;;
31438;SDS011;18062;48.872;9.220;2023-05-10T05:11:26;0.57;;;0.57;;
31438;SDS011;18062;48.872;9.220;2023-05-10T05:13:52;0.80;;;0.80;;
31438;SDS011;18062;48.872;9.220;2023-05-10T05:16:18;0.80;;;0.80;;
31438;SDS011;18062;48.872;9.220;2023-05-10T05:18:44;0.77;;;0.73;;
31438;SDS011;18062;48.872;9.220;2023-05-10T05:21:17;0.60;;;0.60;;
31438;SDS011;18062;48.872;9.220;2023-05-10T05:23:43;0.70;;;0.70;;
31438;SDS011;18062;48.872;9.220;2023-05-10T05:26:09;1.10;;;1.00;;
31438;SDS011;18062;48.872;9.220;2023-05-10T05:28:35;0.73;;;0.73;;
31438;SDS011;18062;48.872;9.220;2023-05-10T05:31:05;0.83;;;0.83;;
31438;SDS011;18062;48.872;9.220;2023-05-10T05:33:32;0.53;;;0.53;;
31438;SDS011;18062;48.872;9.220;2023-05-10T05:36:00;0.80;;;0.80;;
31438;SDS011;18062;48.872;9.220;2023-05-10T05:38:26;0.70;;;0.70;;
31438;SDS011;18062;48.872;9.220;2023-05-10T05:40:52;0.60;;;0.60;;
31438;SDS011;18062;48.872;9.220;2023-05-10T05:43:18;0.63;;;0.63;;
31438;SDS011;18062;48.872;9.220;2023-05-10T05:45:44;0.90;;;0.90;;
31438;SDS011;18062;48.872;9.220;2023-05-10T05:48:10;0.87;;;0.87;;
31438;SDS011;18062;48.872;9.220;2023-05-10T05:50:36;0.70;;;0.70;;
31438;SDS011;18062;48.872;9.220;2023-05-10T05:53:02;0.60;;;0.60;;
31438;SDS011;18062;48.872;9.220;2023-05-10T05:55:28;0.80;;;0.80;;
31438;SDS011;18062;48.872;9.220;2023-05-10T05:57:56;0.83;;;0.83;;
31438;SDS011;18062;48.872;9.220;2023-05-10T06:00:22;0.90;;;0.80;;
31438;SDS011;18062;48.872;9.220;2023-05-10T06:02:48;0.60;;;0.60;;
31438;SDS011;18062;48.872;9.220;2023-05-10T06:05:14;0.87;;;0.70;;
31438;SDS011;18062;48.872;9.220;2023-05-10T06:07:40;0.60;;;0.60;;
31438;SDS011;18062;48.872;9.220;2023-05-10T06:10:10;0.87;;;0.87;;
31438;SDS011;18062;48.872;9.220;2023-05-10T06:12:36;0.90;;;0.90;;
31438;SDS011;18062;48.872;9.220;2023-05-10T06:15:02;0.97;;;0.97;;
31438;SDS011;18062;48.872;9.220;2023-05-10T06:17:28;0.80;;;0.80;;
31438;SDS011;18062;48.872;9.220;2023-05-10T06:19:55;0.70;;;0.70;;
31438;SDS011;18062;48.872;9.220;2023-05-10T06:22:21;1.57;;;0.90;;
31438;SDS011;18062;48.872;9.220;2023-05-10T06:24:48;0.70;;;0.70;;
31438;SDS011;18062;48.872;9.220;2023-05-10T06:27:14;1.00;;;1.00;;
31438;SDS011;18062;48.872;9.220;2023-05-10T06:29:40;0.90;;;0.90;;
31438;SDS011;18062;48.872;9.220;2023-05-10T06:32:06;0.83;;;0.60;;
31438;SDS011;18062;48.872;9.220;2023-05-10T06:34:32;1.23;;;0.70;;
31438;SDS011;18062;48.872;9.220;2023-05-10T06:36:58;0.80;;;0.80;;
31438;SDS011;18062;48.872;9.220;2023-05-10T06:39:24;0.80;;;0.80;;
31438;SDS011;18062;48.872;9.220;2023-05-10T06:41:50;0.60;;;0.60;;
31438;SDS011;18062;48.872;9.220;2023-05-10T06:44:16;0.87;;;0.87;;
31438;SDS011;18062;48.872;9.220;2023-05-10T06:46:42;0.60;;;0.60;;
31438;SDS011;18062;48.872;9.220;2023-05-10T06:49:08;0.83;;;0.80;;
31438;SDS011;18062;48.872;9.220;2023-05-10T06:51:34;1.13;;;0.90;;
31438;SDS011;18062;48.872;9.220;2023-05-10T06:54:00;0.67;;;0.67;;
31438;SDS011;18062;48.872;9.220;2023-05-10T06:56:26;1.00;;;0.90;;
31438;SDS011;18062;48.872;9.220;2023-05-10T06:58:52;1.00;;;1.00;;
31438;SDS011;18062;48.872;9.220;2023-05-10T07:01:18;0.80;;;0.80;;
31438;SDS011;18062;48.872;9.220;2023-05-10T07:03:44;1.00;;;0.90;;
31438;SDS011;18062;48.872;9.220;2023-05-10T07:06:10;0.80;;;0.80;;
31438;SDS011;18062;48.872;9.220;2023-05-10T07:08:36;1.00;;;0.80;;
31438;SDS011;18062;48.872;9.220;2023-05-10T07:11:03;0.60;;;0.60;;
31438;SDS011;18062;48.872;9.220;2023-05-10T07:13:32;0.57;;;0.57;;
31438;SDS011;18062;48.872;9.220;2023-05-10T07:15:59;0.60;;;0.60;;
31438;SDS011;18062;48.872;9.220;2023-05-10T07:18:25;0.50;;;0.50;;
31438;SDS011;18062;48.872;9.220;2023-05-10T07:20:52;0.60;;;0.60;;
31438;SDS011;18062;48.872;9.220;2023-05-10T07:23:18;0.80;;;0.73;;
31438;SDS011;18062;48.872;9.220;2023-05-10T07:25:45;1.20;;;0.63;;
31438;SDS011;18062;48.872;9.220;2023-05-10T07:28:11;0.63;;;0.63;;
31438;SDS011;18062;48.872;9.220;2023-05-10T07:30:37;0.60;;;0.60;;
31438;SDS011;18062;48.872;9.220;2023-05-10T07:33:03;0.70;;;0.70;;
31438;SDS011;18062;48.872;9.220;2023-05-10T07:35:29;0.70;;;0.70;;
31438;SDS011;18062;48.872;9.220;2023-05-10T07:37:55;0.60;;;0.60;;
31438;SDS011;18062;48.872;9.220;2023-05-10T07:40:21;0.50;;;0.50;;
31438;SDS011;18062;48.872;9.220;2023-05-10T07:42:47;0.60;;;0.60;;
31438;SDS011;18062;48.872;9.220;2023-05-10T07:45:13;0.60;;;0.60;;
31438;SDS011;18062;48.872;9.220;2023-05-10T07:47:39;0.50;;;0.50;;
31438;SDS011;18062;48.872;9.220;2023-05-10T07:50:06;0.60;;;0.60;;
31438;SDS011;18062;48.872;9.220;2023-05-10T07:52:32;0.60;;;0.60;;
31438;SDS011;18062;48.872;9.220;2023-05-10T07:54:58;0.53;;;0.53;;
31438;SDS011;18062;48.872;9.220;2023-05-10T07:57:24;0.77;;;0.60;;
31438;SDS011;18062;48.872;9.220;2023-05-10T07:59:50;0.70;;;0.53;;
31438;SDS011;18062;48.872;9.220;2023-05-10T08:02:16;0.50;;;0.50;;
31438;SDS011;18062;48.872;9.220;2023-05-10T08:04:42;0.40;;;0.40;;
31438;SDS011;18062;48.872;9.220;2023-05-10T08:07:08;0.50;;;0.50;;
31438;SDS011;18062;48.872;9.220;2023-05-10T08:09:34;0.70;;;0.70;;
31438;SDS011;18062;48.872;9.220;2023-05-10T08:12:00;0.43;;;0.43;;
31438;SDS011;18062;48.872;9.220;2023-05-10T08:14:27;2.63;;;0.60;;
31438;SDS011;18062;48.872;9.220;2023-05-10T08:16:54;1.47;;;0.47;;
31438;SDS011;18062;48.872;9.220;2023-05-10T08:19:20;0.43;;;0.43;;
31438;SDS011;18062;48.872;9.220;2023-05-10T08:21:46;0.50;;;0.50;;
31438;SDS011;18062;48.872;9.220;2023-05-10T08:24:13;0.50;;;0.50;;
31438;SDS011;18062;48.872;9.220;2023-05-10T08:26:39;0.50;;;0.50;;
31438;SDS011;18062;48.872;9.220;2023-05-10T08:29:05;0.50;;;0.50;;
31438;SDS011;18062;48.872;9.220;2023-05-10T08:31:31;0.50;;;0.50;;
31438;SDS011;18062;48.872;9.220;2023-05-10T08:33:57;0.60;;;0.60;;
31438;SDS011;18062;48.872;9.220;2023-05-10T08:36:23;0.53;;;0.53;;
31438;SDS011;18062;48.872;9.220;2023-05-10T08:38:52;0.40;;;0.40;;
31438;SDS011;18062;48.872;9.220;2023-05-10T08:41:20;0.40;;;0.40;;
31438;SDS011;18062;48.872;9.220;2023-05-10T08:43:46;0.60;;;0.60;;
31438;SDS011;18062;48.872;9.220;2023-05-10T08:46:16;0.33;;;0.33;;
31438;SDS011;18062;48.872;9.220;2023-05-10T08:48:43;0.40;;;0.40;;
31438;SDS011;18062;48.872;9.220;2023-05-10T08:51:09;0.50;;;0.50;;
31438;SDS011;18062;48.872;9.220;2023-05-10T08:53:35;0.60;;;0.43;;
31438;SDS011;18062;48.872;9.220;2023-05-10T08:56:02;0.30;;;0.30;;
31438;SDS011;18062;48.872;9.220;2023-05-10T08:58:29;0.30;;;0.30;;
31438;SDS011;18062;48.872;9.220;2023-05-10T09:00:55;0.40;;;0.40;;
31438;SDS011;18062;48.872;9.220;2023-05-10T09:03:22;0.40;;;0.40;;
31438;SDS011;18062;48.872;9.220;2023-05-10T09:05:48;0.30;;;0.30;;
31438;SDS011;18062;48.872;9.220;2023-05-10T09:08:15;0.40;;;0.40;;
31438;SDS011;18062;48.872;9.220;2023-05-10T09:10:42;0.30;;;0.30;;
31438;SDS011;18062;48.872;9.220;2023-05-10T09:13:08;0.30;;;0.30;;
31438;SDS011;18062;48.872;9.220;2023-05-10T09:15:35;0.20;;;0.20;;
31438;SDS011;18062;48.872;9.220;2023-05-10T09:18:01;0.50;;;0.50;;
31438;SDS011;18062;48.872;9.220;2023-05-10T09:20:27;0.30;;;0.30;;
31438;SDS011;18062;48.872;9.220;2023-05-10T09:22:54;0.40;;;0.40;;
31438;SDS011;18062;48.872;9.220;2023-05-10T09:25:20;0.40;;;0.40;;
31438;SDS011;18062;48.872;9.220;2023-05-10T09:27:47;0.43;;;0.43;;
31438;SDS011;18062;48.872;9.220;2023-05-10T09:30:17;0.30;;;0.30;;
31438;SDS011;18062;48.872;9.220;2023-05-10T09:32:48;0.30;;;0.30;;
31438;SDS011;18062;48.872;9.220;2023-05-10T09:35:16;0.32;;;0.32;;
31438;SDS011;18062;48.872;9.220;2023-05-10T09:37:44;0.40;;;0.40;;
31438;SDS011;18062;48.872;9.220;2023-05-10T09:40:12;0.63;;;0.50;;
31438;SDS011;18062;48.872;9.220;2023-05-10T09:42:38;0.40;;;0.40;;
31438;SDS011;18062;48.872;9.220;2023-05-10T09:45:04;0.40;;;0.40;;
31438;SDS011;18062;48.872;9.220;2023-05-10T09:47:31;0.22;;;0.22;;
31438;SDS011;18062;48.872;9.220;2023-05-10T09:49:58;0.40;;;0.40;;
31438;SDS011;18062;48.872;9.220;2023-05-10T09:52:28;0.40;;;0.40;;
31438;SDS011;18062;48.872;9.220;2023-05-10T09:54:54;0.47;;;0.47;;
31438;SDS011;18062;48.872;9.220;2023-05-10T09:57:21;0.30;;;0.30;;
31438;SDS011;18062;48.872;9.220;2023-05-10T09:59:47;0.40;;;0.40;;
31438;SDS011;18062;48.872;9.220;2023-05-10T10:02:14;1.10;;;0.80;;
31438;SDS011;18062;48.872;9.220;2023-05-10T10:04:41;0.60;;;0.60;;
31438;SDS011;18062;48.872;9.220;2023-05-10T10:09:42;0.85;;;0.60;;
31438;SDS011;18062;48.872;9.220;2023-05-10T10:12:08;0.40;;;0.40;;
31438;SDS011;18062;48.872;9.220;2023-05-10T10:14:34;0.30;;;0.30;;
31438;SDS011;18062;48.872;9.220;2023-05-10T10:17:00;0.53;;;0.53;;
31438;SDS011;18062;48.872;9.220;2023-05-10T10:19:27;0.40;;;0.40;;
31438;SDS011;18062;48.872;9.220;2023-05-10T10:21:53;0.53;;;0.43;;
31438;SDS011;18062;48.872;9.220;2023-05-10T10:24:19;0.40;;;0.40;;
31438;SDS011;18062;48.872;9.220;2023-05-10T10:26:45;0.50;;;0.50;;
31438;SDS011;18062;48.872;9.220;2023-05-10T10:29:36;0.40;;;0.40;;
31438;SDS011;18062;48.872;9.220;2023-05-10T10:32:18;0.67;;;0.47;;
31438;SDS011;18062;48.872;9.220;2023-05-10T10:34:45;0.30;;;0.30;;
31438;SDS011;18062;48.872;9.220;2023-05-10T10:37:12;0.40;;;0.40;;
31438;SDS011;18062;48.872;9.220;2023-05-10T10:39:38;0.40;;;0.40;;
31438;SDS011;18062;48.872;9.220;2023-05-10T10:42:04;0.33;;;0.33;;
31438;SDS011;18062;48.872;9.220;2023-05-10T10:54:58;0.40;;;0.40;;
31438;SDS011;18062;48.872;9.220;2023-05-10T10:57:25;0.40;;;0.40;;
31438;SDS011;18062;48.872;9.220;2023-05-10T10:59:51;0.30;;;0.30;;
31438;SDS011;18062;48.872;9.220;2023-05-10T11:02:34;0.30;;;0.30;;
31438;SDS011;18062;48.872;9.220;2023-05-10T11:05:00;0.40;;;0.40;;
31438;SDS011;18062;48.872;9.220;2023-05-10T11:07:53;0.30;;;0.30;;
31438;SDS011;18062;48.872;9.220;2023-05-10T11:10:20;0.43;;;0.43;;
31438;SDS011;18062;48.872;9.220;2023-05-10T11:12:59;0.40;;;0.40;;
31438;SDS011;18062;48.872;9.220;2023-05-10T11:15:35;0.43;;;0.43;;
31438;SDS011;18062;48.872;9.220;2023-05-10T11:18:17;0.43;;;0.43;;
31438;SDS011;18062;48.872;9.220;2023-05-10T11:20:44;0.70;;;0.35;;
31438;SDS011;18062;48.872;9.220;2023-05-10T11:23:12;0.60;;;0.60;;
31438;SDS011;18062;48.872;9.220;2023-05-10T11:25:43;0.40;;;0.40;;
31438;SDS011;18062;48.872;9.220;2023-05-10T11:28:13;0.50;;;0.50;;
31438;SDS011;18062;48.872;9.220;2023-05-10T11:30:39;0.30;;;0.30;;
31438;SDS011;18062;48.872;9.220;2023-05-10T11:33:06;0.40;;;0.40;;
31438;SDS011;18062;48.872;9.220;2023-05-10T11:35:39;0.30;;;0.30;;
31438;SDS011;18062;48.872;9.220;2023-05-10T11:38:05;0.30;;;0.30;;
31438;SDS011;18062;48.872;9.220;2023-05-10T11:40:31;0.40;;;0.40;;
31438;SDS011;18062;48.872;9.220;2023-05-10T11:42:57;0.57;;;0.40;;
31438;SDS011;18062;48.872;9.220;2023-05-10T11:45:24;0.38;;;0.38;;
31438;SDS011;18062;48.872;9.220;2023-05-10T11:47:51;0.35;;;0.35;;
31438;SDS011;18062;48.872;9.220;2023-05-10T11:50:17;0.40;;;0.40;;
31438;SDS011;18062;48.872;9.220;2023-05-10T11:52:43;0.57;;;0.57;;
31438;SDS011;18062;48.872;9.220;2023-05-10T11:55:09;0.70;;;0.57;;
31438;SDS011;18062;48.872;9.220;2023-05-10T11:57:35;0.50;;;0.50;;
31438;SDS011;18062;48.872;9.220;2023-05-10T12:00:03;0.47;;;0.43;;
31438;SDS011;18062;48.872;9.220;2023-05-10T12:02:29;0.45;;;0.45;;
31438;SDS011;18062;48.872;9.220;2023-05-10T12:04:56;1.08;;;0.60;;
31438;SDS011;18062;48.872;9.220;2023-05-10T12:07:22;0.43;;;0.43;;
31438;SDS011;18062;48.872;9.220;2023-05-10T12:10:04;0.40;;;0.40;;
31438;SDS011;18062;48.872;9.220;2023-05-10T12:12:43;0.50;;;0.50;;
31438;SDS011;18062;48.872;9.220;2023-05-10T12:15:10;0.50;;;0.50;;
31438;SDS011;18062;48.872;9.220;2023-05-10T12:17:37;0.57;;;0.47;;
31438;SDS011;18062;48.872;9.220;2023-05-10T12:20:17;0.65;;;0.65;;
31438;SDS011;18062;48.872;9.220;2023-05-10T12:22:51;0.52;;;0.52;;
31438;SDS011;18062;48.872;9.220;2023-05-10T12:25:18;0.60;;;0.60;;
31438;SDS011;18062;48.872;9.220;2023-05-10T12:27:48;0.60;;;0.53;;
31438;SDS011;18062;48.872;9.220;2023-05-10T12:30:18;0.40;;;0.40;;
31438;SDS011;18062;48.872;9.220;2023-05-10T12:32:45;0.40;;;0.40;;
31438;SDS011;18062;48.872;9.220;2023-05-10T12:35:11;0.33;;;0.33;;
31438;SDS011;18062;48.872;9.220;2023-05-10T12:37:37;0.63;;;0.50;;
31438;SDS011;18062;48.872;9.220;2023-05-10T12:40:09;0.60;;;0.60;;
31438;SDS011;18062;48.872;9.220;2023-05-10T12:42:38;0.50;;;0.50;;
31438;SDS011;18062;48.872;9.220;2023-05-10T12:45:05;0.70;;;0.57;;
31438;SDS011;18062;48.872;9.220;2023-05-10T12:47:32;2.00;;;0.50;;
31438;SDS011;18062;48.872;9.220;2023-05-10T12:49:59;0.40;;;0.40;;
31438;SDS011;18062;48.872;9.220;2023-05-10T12:52:25;0.40;;;0.40;;
31438;SDS011;18062;48.872;9.220;2023-05-10T12:54:52;0.50;;;0.50;;
31438;SDS011;18062;48.872;9.220;2023-05-10T12:57:18;0.40;;;0.40;;
31438;SDS011;18062;48.872;9.220;2023-05-10T12:59:44;0.40;;;0.40;;
31438;SDS011;18062;48.872;9.220;2023-05-10T13:02:10;0.45;;;0.45;;
31438;SDS011;18062;48.872;9.220;2023-05-10T13:04:36;0.40;;;0.40;;
31438;SDS011;18062;48.872;9.220;2023-05-10T13:07:05;0.43;;;0.43;;
31438;SDS011;18062;48.872;9.220;2023-05-10T13:09:31;0.45;;;0.45;;
31438;SDS011;18062;48.872;9.220;2023-05-10T13:11:57;0.65;;;0.50;;
31438;SDS011;18062;48.872;9.220;2023-05-10T13:14:24;0.40;;;0.40;;
31438;SDS011;18062;48.872;9.220;2023-05-10T13:16:50;0.80;;;0.40;;
31438;SDS011;18062;48.872;9.220;2023-05-10T13:19:16;1.20;;;0.50;;
31438;SDS011;18062;48.872;9.220;2023-05-10T13:21:42;0.50;;;0.50;;
31438;SDS011;18062;48.872;9.220;2023-05-10T13:24:09;0.82;;;0.70;;
31438;SDS011;18062;48.872;9.220;2023-05-10T13:26:35;2.05;;;0.60;;
31438;SDS011;18062;48.872;9.220;2023-05-10T13:29:02;0.65;;;0.60;;
31438;SDS011;18062;48.872;9.220;2023-05-10T13:31:28;0.50;;;0.50;;
31438;SDS011;18062;48.872;9.220;2023-05-10T13:33:55;0.50;;;0.50;;
31438;SDS011;18062;48.872;9.220;2023-05-10T13:36:21;0.50;;;0.50;;
31438;SDS011;18062;48.872;9.220;2023-05-10T13:38:47;0.50;;;0.50;;
31438;SDS011;18062;48.872;9.220;2023-05-10T13:41:13;2.83;;;0.60;;
31438;SDS011;18062;48.872;9.220;2023-05-10T13:43:39;0.43;;;0.43;;
31438;SDS011;18062;48.872;9.220;2023-05-10T13:46:05;0.50;;;0.50;;
31438;SDS011;18062;48.872;9.220;2023-05-10T13:48:31;0.40;;;0.40;;
31438;SDS011;18062;48.872;9.220;2023-05-10T13:50:57;0.40;;;0.40;;
31438;SDS011;18062;48.872;9.220;2023-05-10T13:53:23;0.67;;;0.67;;
31438;SDS011;18062;48.872;9.220;2023-05-10T13:55:50;0.97;;;0.60;;
31438;SDS011;18062;48.872;9.220;2023-05-10T13:58:16;0.57;;;0.57;;
31438;SDS011;18062;48.872;9.220;2023-05-10T14:00:42;0.60;;;0.50;;
31438;SDS011;18062;48.872;9.220;2023-05-10T14:03:08;0.40;;;0.40;;
31438;SDS011;18062;48.872;9.220;2023-05-10T14:05:35;0.97;;;0.50;;
31438;SDS011;18062;48.872;9.220;2023-05-10T14:08:01;0.60;;;0.60;;
31438;SDS011;18062;48.872;9.220;2023-05-10T14:10:28;0.60;;;0.60;;
31438;SDS011;18062;48.872;9.220;2023-05-10T14:12:55;0.60;;;0.60;;
31438;SDS011;18062;48.872;9.220;2023-05-10T14:15:21;0.60;;;0.60;;
31438;SDS011;18062;48.872;9.220;2023-05-10T14:17:47;0.40;;;0.40;;
31438;SDS011;18062;48.872;9.220;2023-05-10T14:20:13;0.67;;;0.60;;
31438;SDS011;18062;48.872;9.220;2023-05-10T14:22:39;0.70;;;0.70;;
31438;SDS011;18062;48.872;9.220;2023-05-10T14:25:05;0.50;;;0.50;;
31438;SDS011;18062;48.872;9.220;2023-05-10T14:27:31;0.60;;;0.60;;
31438;SDS011;18062;48.872;9.220;2023-05-10T14:29:57;0.50;;;0.50;;
31438;SDS011;18062;48.872;9.220;2023-05-10T14:32:23;0.53;;;0.53;;
31438;SDS011;18062;48.872;9.220;2023-05-10T14:34:49;0.70;;;0.40;;
31438;SDS011;18062;48.872;9.220;2023-05-10T14:37:15;0.60;;;0.60;;
31438;SDS011;18062;48.872;9.220;2023-05-10T14:39:41;0.67;;;0.50;;
31438;SDS011;18062;48.872;9.220;2023-05-10T14:42:07;0.47;;;0.47;;
31438;SDS011;18062;48.872;9.220;2023-05-10T14:44:34;1.00;;;0.70;;
31438;SDS011;18062;48.872;9.220;2023-05-10T14:47:00;0.57;;;0.40;;
31438;SDS011;18062;48.872;9.220;2023-05-10T14:49:26;1.70;;;0.70;;
31438;SDS011;18062;48.872;9.220;2023-05-10T14:51:52;0.60;;;0.60;;
31438;SDS011;18062;48.872;9.220;2023-05-10T14:54:18;0.40;;;0.40;;
31438;SDS011;18062;48.872;9.220;2023-05-10T14:56:44;0.40;;;0.40;;
31438;SDS011;18062;48.872;9.220;2023-05-10T14:59:10;0.50;;;0.50;;
31438;SDS011;18062;48.872;9.220;2023-05-10T15:01:36;0.35;;;0.35;;
31438;SDS011;18062;48.872;9.220;2023-05-10T15:04:03;0.47;;;0.47;;
31438;SDS011;18062;48.872;9.220;2023-05-10T15:06:32;0.60;;;0.60;;
31438;SDS011;18062;48.872;9.220;2023-05-10T15:08:59;0.30;;;0.30;;
31438;SDS011;18062;48.872;9.220;2023-05-10T15:11:25;0.30;;;0.30;;